createdAt,value
2023-01-31T00:01:33.429Z,95956.84
2023-01-31T00:05:16.425Z,95964.88
2023-01-31T00:09:00.605Z,95965.16
2023-01-31T00:12:44.603Z,95965.41
2023-01-31T00:16:27.962Z,95970.91
2023-01-31T00:20:11.923Z,95974.72
2023-01-31T00:23:56.057Z,95961.34
2023-01-31T00:27:38.820Z,95981.28
2023-01-31T00:31:23.924Z,95969.13
2023-01-31T00:35:07.354Z,95961.22
2023-01-31T00:38:50.652Z,95962.72
2023-01-31T00:42:33.469Z,95960.81
2023-01-31T00:46:16.352Z,95957.25
2023-01-31T00:50:00.559Z,95966.00
2023-01-31T00:53:43.283Z,95937.72
2023-01-31T00:57:26.048Z,95949.06
2023-01-31T01:01:10.194Z,95969.00
2023-01-31T01:04:52.971Z,95953.97
2023-01-31T01:08:37.868Z,95950.56
2023-01-31T01:12:20.532Z,95958.06
2023-01-31T01:16:07.544Z,95968.44
2023-01-31T01:19:50.579Z,95963.53
2023-01-31T01:23:33.268Z,95980.19
2023-01-31T01:27:17.263Z,95970.22
2023-01-31T01:30:59.940Z,95962.44
2023-01-31T01:34:42.675Z,95975.00
2023-01-31T01:38:25.293Z,95969.81
2023-01-31T01:42:09.037Z,95982.91
2023-01-31T01:45:54.022Z,95986.44
2023-01-31T01:49:38.537Z,95976.63
2023-01-31T01:53:22.973Z,95993.56
2023-01-31T01:57:08.495Z,95986.75
2023-01-31T02:00:52.852Z,95988.66
2023-01-31T02:04:38.160Z,95982.09
2023-01-31T02:08:23.047Z,95994.59
2023-01-31T02:12:06.019Z,95995.19
2023-01-31T02:15:49.165Z,96016.63
2023-01-31T02:19:39.227Z,95997.66
2023-01-31T02:23:48.337Z,96010.16
2023-01-31T02:28:01.203Z,96010.44
2023-01-31T02:32:24.985Z,96012.88
2023-01-31T02:36:16.757Z,96026.66
2023-01-31T02:40:03.418Z,96019.28
2023-01-31T02:44:09.715Z,96022.44
2023-01-31T02:48:04.707Z,96022.88
2023-01-31T02:52:11.319Z,96028.91
2023-01-31T02:56:14.390Z,96037.03
2023-01-31T02:59:57.391Z,96045.34
2023-01-31T03:03:41.480Z,96048.06
2023-01-31T03:07:26.874Z,96030.75
2023-01-31T03:11:10.426Z,96024.34
2023-01-31T03:15:05.076Z,96030.31
2023-01-31T03:18:55.915Z,96030.31
2023-01-31T03:22:40.802Z,96026.47
2023-01-31T03:26:24.047Z,96036.16
2023-01-31T03:30:10.993Z,96041.47
2023-01-31T03:33:56.666Z,96035.19
2023-01-31T03:37:42.436Z,96052.88
2023-01-31T03:41:29.189Z,96048.78
2023-01-31T03:45:15.839Z,96064.03
2023-01-31T03:49:00.855Z,96060.63
2023-01-31T03:52:46.032Z,96066.84
2023-01-31T03:56:31.535Z,96080.81
2023-01-31T04:00:18.024Z,96062.00
2023-01-31T04:04:05.243Z,96071.53
2023-01-31T04:07:48.055Z,96065.78
2023-01-31T04:11:30.808Z,96076.38
2023-01-31T04:15:14.156Z,96086.25
2023-01-31T04:18:57.134Z,96079.00
2023-01-31T04:22:41.284Z,96097.00
2023-01-31T04:26:23.995Z,96089.22
2023-01-31T04:30:07.956Z,96108.03
2023-01-31T04:33:50.693Z,96093.69
2023-01-31T04:37:34.030Z,96093.84
2023-01-31T04:41:18.041Z,96098.34
2023-01-31T04:45:00.728Z,96104.66
2023-01-31T04:48:43.399Z,96107.38
2023-01-31T04:52:26.163Z,96109.13
2023-01-31T04:56:09.138Z,96107.50
2023-01-31T04:59:53.164Z,96125.75
2023-01-31T05:03:36.422Z,96118.63
2023-01-31T05:07:19.135Z,96129.91
2023-01-31T05:11:04.220Z,96120.94
2023-01-31T05:14:47.245Z,96130.63
2023-01-31T05:18:31.468Z,96130.63
2023-01-31T05:22:14.131Z,96133.91
2023-01-31T05:25:56.858Z,96139.34
2023-01-31T05:29:39.564Z,96152.72
2023-01-31T05:33:22.424Z,96157.91
2023-01-31T05:37:07.143Z,96154.63
2023-01-31T05:40:50.849Z,96148.63
2023-01-31T05:44:33.651Z,96141.28
2023-01-31T05:48:16.298Z,96169.91
2023-01-31T05:51:58.926Z,96147.28
2023-01-31T05:55:45.957Z,96166.91
2023-01-31T05:59:31.173Z,96157.72
2023-01-31T06:03:13.900Z,96165.84
2023-01-31T06:06:56.618Z,96165.72
2023-01-31T06:10:39.368Z,96155.38
2023-01-31T06:14:23.607Z,96151.84
2023-01-31T06:18:06.346Z,96161.13
2023-01-31T06:21:49.024Z,96173.13
2023-01-31T06:25:32.178Z,96149.94
2023-01-31T06:29:14.828Z,96143.13
2023-01-31T06:33:00.415Z,96148.78
2023-01-31T06:36:43.353Z,96153.72
2023-01-31T06:40:26.111Z,96156.69
2023-01-31T06:44:08.784Z,96160.91
2023-01-31T06:47:51.477Z,96161.03
2023-01-31T06:51:35.669Z,96183.97
2023-01-31T06:55:18.953Z,96171.72
2023-01-31T06:59:01.857Z,96167.81
2023-01-31T07:02:44.521Z,96191.38
2023-01-31T07:06:27.204Z,96191.63
2023-01-31T07:10:12.780Z,96185.53
2023-01-31T07:13:55.522Z,96186.44
2023-01-31T07:17:38.237Z,96204.09
2023-01-31T07:21:20.993Z,96184.31
2023-01-31T07:25:03.737Z,96190.63
2023-01-31T07:28:48.146Z,96191.94
2023-01-31T07:32:31.548Z,96190.97
2023-01-31T07:36:15.863Z,96187.44
2023-01-31T07:39:58.496Z,96193.59
2023-01-31T07:43:41.147Z,96197.00
2023-01-31T07:47:25.254Z,96185.78
2023-01-31T07:51:08.562Z,96189.88
2023-01-31T07:54:51.424Z,96188.63
2023-01-31T07:58:35.820Z,96192.53
2023-01-31T08:02:36.831Z,96201.13
2023-01-31T08:06:20.947Z,96196.38
2023-01-31T08:10:03.603Z,96188.75
2023-01-31T08:13:46.654Z,96175.78
2023-01-31T08:17:29.587Z,96177.56
2023-01-31T08:21:13.420Z,96186.94
2023-01-31T08:24:57.583Z,96192.56
2023-01-31T08:28:40.800Z,96186.69
2023-01-31T08:32:23.514Z,96194.66
2023-01-31T08:36:10.194Z,96187.28
2023-01-31T08:39:52.837Z,96185.38
2023-01-31T08:43:53.780Z,96190.81
2023-01-31T08:47:38.869Z,96191.63
2023-01-31T08:51:21.859Z,96180.38
2023-01-31T08:55:08.813Z,96222.63
2023-01-31T08:58:53.552Z,96186.94
2023-01-31T09:02:36.248Z,96186.94
2023-01-31T09:06:21.137Z,96180.31
2023-01-31T09:10:04.465Z,96196.88
2023-01-31T09:13:50.633Z,96214.53
2023-01-31T09:17:34.647Z,96185.75
2023-01-31T09:21:19.289Z,96181.38
2023-01-31T09:25:02.569Z,96188.09
2023-01-31T09:28:45.688Z,96185.66
2023-01-31T09:32:30.092Z,96181.44
2023-01-31T09:36:16.232Z,96182.56
2023-01-31T09:39:59.010Z,96203.91
2023-01-31T09:43:44.101Z,96206.50
2023-01-31T09:47:29.949Z,96202.59
2023-01-31T09:51:14.502Z,96204.00
2023-01-31T09:54:57.167Z,96225.09
2023-01-31T09:58:43.471Z,96219.38
2023-01-31T10:02:43.750Z,96230.91
2023-01-31T10:06:31.684Z,96191.06
2023-01-31T10:10:20.631Z,96207.09
2023-01-31T10:14:08.403Z,96215.31
2023-01-31T10:17:53.369Z,96175.13
2023-01-31T10:21:41.492Z,96181.41
2023-01-31T10:25:28.155Z,96179.22
2023-01-31T10:29:16.390Z,96172.13
2023-01-31T10:33:03.824Z,96186.31
2023-01-31T10:36:52.192Z,96167.19
2023-01-31T10:40:37.234Z,96191.50
2023-01-31T10:44:23.700Z,96164.56
2023-01-31T10:48:15.097Z,96158.84
2023-01-31T10:52:13.749Z,96150.63
2023-01-31T10:56:01.422Z,96148.03
2023-01-31T10:59:45.414Z,96143.13
2023-01-31T11:03:28.171Z,96143.69
2023-01-31T11:07:12.597Z,96146.19
2023-01-31T11:10:57.537Z,96143.44
2023-01-31T11:14:40.318Z,96124.00
2023-01-31T11:18:29.417Z,96108.00
2023-01-31T11:22:24.309Z,96102.66
2023-01-31T11:26:07.866Z,96099.94
2023-01-31T11:29:54.544Z,96090.91
2023-01-31T11:33:44.113Z,96080.53
2023-01-31T11:37:29.568Z,96088.72
2023-01-31T11:41:29.432Z,96061.81
2023-01-31T11:45:18.478Z,96056.47
2023-01-31T11:49:01.159Z,96052.38
2023-01-31T11:52:47.553Z,96065.34
2023-01-31T11:56:32.387Z,96043.22
2023-01-31T12:00:24.852Z,96023.38
2023-01-31T12:04:07.674Z,96032.94
2023-01-31T12:07:53.976Z,96007.78
2023-01-31T12:11:37.331Z,96006.16
2023-01-31T12:15:20.435Z,95996.16
2023-01-31T12:19:14.213Z,95990.28
2023-01-31T12:23:04.158Z,96022.00
2023-01-31T12:26:49.836Z,95997.13
2023-01-31T12:30:45.199Z,96006.94
2023-01-31T12:34:47.089Z,96020.63
2023-01-31T12:38:52.628Z,95999.31
2023-01-31T12:42:52.161Z,95987.41
2023-01-31T12:46:40.249Z,95978.81
2023-01-31T12:50:30.794Z,95993.00
2023-01-31T12:54:24.584Z,95988.34
2023-01-31T12:58:20.688Z,95977.41
2023-01-31T13:02:15.138Z,95983.22
2023-01-31T13:05:59.332Z,95983.22
2023-01-31T13:09:43.650Z,95982.44
2023-01-31T13:13:28.681Z,95962.16
2023-01-31T13:17:13.959Z,95945.81
2023-01-31T13:20:58.742Z,95955.84
2023-01-31T13:24:43.906Z,95950.41
2023-01-31T13:28:29.727Z,95958.75
2023-01-31T13:32:16.998Z,95941.66
2023-01-31T13:36:09.855Z,95947.22
2023-01-31T13:39:57.244Z,95920.03
2023-01-31T13:43:40.305Z,95913.84
2023-01-31T13:47:26.764Z,95915.31
2023-01-31T13:51:16.091Z,95905.81
2023-01-31T13:55:02.451Z,95896.41
2023-01-31T13:58:45.914Z,95890.00
2023-01-31T14:02:28.717Z,95917.34
2023-01-31T14:06:11.517Z,95913.78
2023-01-31T14:10:28.258Z,95913.50
2023-01-31T14:14:39.083Z,95909.63
2023-01-31T14:18:43.917Z,95917.63
2023-01-31T14:22:33.289Z,95911.38
2023-01-31T14:26:52.706Z,95919.56
2023-01-31T14:30:41.793Z,95900.69
2023-01-31T14:34:26.320Z,95886.56
2023-01-31T14:38:15.221Z,95907.03
2023-01-31T14:42:26.803Z,95894.44
2023-01-31T14:46:24.008Z,95895.97
2023-01-31T14:50:25.225Z,95892.41
2023-01-31T14:54:18.435Z,95895.13
2023-01-31T14:58:03.623Z,95871.22
2023-01-31T15:01:46.363Z,95875.16
2023-01-31T15:05:42.527Z,95870.09
2023-01-31T15:09:42.943Z,95878.34
2023-01-31T15:13:42.454Z,95883.91
2023-01-31T15:17:40.334Z,95885.69
2023-01-31T15:21:27.059Z,95879.00
2023-01-31T15:25:22.613Z,95880.94
2023-01-31T15:29:08.116Z,95869.50
2023-01-31T15:32:53.520Z,95881.53
2023-01-31T15:36:39.678Z,95892.97
2023-01-31T15:40:24.081Z,95902.03
2023-01-31T15:44:20.616Z,95867.28
2023-01-31T15:48:04.553Z,95858.41
2023-01-31T15:51:47.624Z,95863.75
2023-01-31T15:55:30.321Z,95853.91
2023-01-31T15:59:15.381Z,95856.06
2023-01-31T16:03:02.837Z,95867.56
2023-01-31T16:06:47.665Z,95860.44
2023-01-31T16:10:31.186Z,95867.84
2023-01-31T16:14:14.086Z,95869.50
2023-01-31T16:18:02.083Z,95860.06
2023-01-31T16:21:45.601Z,95893.19
2023-01-31T16:25:28.341Z,95887.00
2023-01-31T16:29:15.078Z,95904.25
2023-01-31T16:32:57.796Z,95893.56
2023-01-31T16:36:56.557Z,95874.69
2023-01-31T16:40:46.896Z,95870.88
2023-01-31T16:44:34.934Z,95850.09
2023-01-31T16:48:26.730Z,95863.25
2023-01-31T16:52:19.516Z,95875.94
2023-01-31T16:56:23.662Z,95899.34
2023-01-31T17:00:08.073Z,95906.19
2023-01-31T17:04:16.965Z,95903.44
2023-01-31T17:08:01.099Z,95889.63
2023-01-31T17:11:43.971Z,95909.75
2023-01-31T17:15:26.754Z,95902.63
2023-01-31T17:19:09.451Z,95889.03
2023-01-31T17:23:02.401Z,95900.09
2023-01-31T17:26:47.271Z,95902.31
2023-01-31T17:30:31.384Z,95917.09
2023-01-31T17:34:18.252Z,95910.78
2023-01-31T17:38:00.989Z,95905.31
2023-01-31T17:41:46.813Z,95922.53
2023-01-31T17:45:32.330Z,95907.22
2023-01-31T17:49:15.039Z,95898.75
2023-01-31T17:52:57.803Z,95926.09
2023-01-31T17:56:40.475Z,95919.69
2023-01-31T18:00:23.336Z,95906.25
2023-01-31T18:04:08.062Z,95930.72
2023-01-31T18:07:51.193Z,95923.59
2023-01-31T18:11:33.971Z,95929.50
2023-01-31T18:15:16.624Z,95934.69
2023-01-31T18:18:59.299Z,95935.09
2023-01-31T18:22:43.295Z,95928.91
2023-01-31T18:26:26.046Z,95922.53
2023-01-31T18:30:09.805Z,95921.28
2023-01-31T18:33:52.566Z,95925.22
2023-01-31T18:37:35.231Z,95917.88
2023-01-31T18:41:21.404Z,95924.56
2023-01-31T18:45:04.902Z,95923.88
2023-01-31T18:48:47.647Z,95929.63
2023-01-31T18:52:30.297Z,95940.56
2023-01-31T18:56:14.508Z,95950.84
2023-01-31T18:59:58.528Z,95944.53
2023-01-31T19:03:42.230Z,95931.81
2023-01-31T19:07:25.058Z,95957.41
2023-01-31T19:11:11.670Z,95952.06
2023-01-31T19:14:56.393Z,95968.88
2023-01-31T19:18:41.008Z,95956.19
2023-01-31T19:22:28.378Z,95957.81
2023-01-31T19:26:11.127Z,95954.53
2023-01-31T19:29:53.851Z,95958.34
2023-01-31T19:33:36.616Z,95963.19
2023-01-31T19:37:20.644Z,95946.75
2023-01-31T19:41:07.746Z,95953.84
2023-01-31T19:44:50.446Z,95935.91
2023-01-31T19:48:33.202Z,95946.31
2023-01-31T19:52:15.848Z,95938.66
2023-01-31T19:55:59.814Z,95923.34
2023-01-31T19:59:44.110Z,95926.59
2023-01-31T20:03:26.888Z,95919.47
2023-01-31T20:07:09.645Z,95921.69
2023-01-31T20:10:55.032Z,95924.41
2023-01-31T20:14:39.082Z,95959.47
2023-01-31T20:18:23.235Z,95940.06
2023-01-31T20:22:05.960Z,95938.44
2023-01-31T20:25:50.024Z,95925.28
2023-01-31T20:29:35.686Z,95938.72
2023-01-31T20:33:20.304Z,95957.59
2023-01-31T20:37:03.093Z,95942.41
2023-01-31T20:40:51.089Z,95947.88
2023-01-31T20:44:33.738Z,95936.78
2023-01-31T20:48:16.892Z,95929.13
2023-01-31T20:52:01.018Z,95955.66
2023-01-31T20:55:43.670Z,95927.78
2023-01-31T20:59:26.769Z,95949.69
2023-01-31T21:03:09.441Z,95914.34
2023-01-31T21:06:52.121Z,95916.84
2023-01-31T21:10:37.258Z,95920.03
2023-01-31T21:14:19.946Z,95931.50
2023-01-31T21:18:02.605Z,95922.34
2023-01-31T21:21:45.272Z,95928.41
2023-01-31T21:25:27.979Z,95932.53
2023-01-31T21:29:13.708Z,95938.03
2023-01-31T21:32:59.086Z,95919.72
2023-01-31T21:36:42.415Z,95946.66
2023-01-31T21:40:26.619Z,95922.06
2023-01-31T21:44:09.473Z,95920.28
2023-01-31T21:48:10.841Z,95912.63
2023-01-31T21:51:53.911Z,95920.03
2023-01-31T21:55:36.569Z,95913.72
2023-01-31T21:59:21.575Z,95898.81
2023-01-31T22:03:05.685Z,95912.47
2023-01-31T22:06:48.886Z,95893.75
2023-01-31T22:10:31.532Z,95941.19
2023-01-31T22:14:15.348Z,95882.53
2023-01-31T22:17:57.987Z,95849.47
2023-01-31T22:21:42.816Z,95865.31
2023-01-31T22:25:25.541Z,95871.19
2023-01-31T22:29:12.411Z,95827.31
2023-01-31T22:32:55.106Z,95832.53
2023-01-31T22:36:37.848Z,95871.34
2023-01-31T22:40:22.973Z,95876.38
2023-01-31T22:44:06.190Z,95836.31
2023-01-31T22:47:48.862Z,95836.75
2023-01-31T22:51:31.565Z,95846.97
2023-01-31T22:55:14.222Z,95874.31
2023-01-31T22:58:59.267Z,95870.75
2023-01-31T23:02:41.951Z,95856.94
2023-01-31T23:06:24.972Z,95872.78
2023-01-31T23:10:08.365Z,95877.28
2023-01-31T23:13:51.148Z,95877.00
2023-01-31T23:17:41.110Z,95861.50
2023-01-31T23:21:23.799Z,95896.94
2023-01-31T23:25:08.265Z,95882.41
2023-01-31T23:28:50.946Z,95889.22
2023-01-31T23:32:35.179Z,95874.47
2023-01-31T23:36:17.872Z,95885.00
2023-01-31T23:40:00.520Z,95878.53
2023-01-31T23:43:43.232Z,95862.94
2023-01-31T23:47:25.973Z,95888.66
2023-01-31T23:51:10.235Z,95852.56
2023-01-31T23:54:55.672Z,95844.75
2023-01-31T23:58:38.333Z,95847.34
